sensor_id;sensor_type;location;lat;lon;timestamp;pressure;altitude;pressure_sealevel;temperature;humidity
3748;BME280;1889;50.058;8.688;2023-11-19T00:00:32;100037.07;;;11.61;93.08
3748;BME280;1889;50.058;8.688;2023-11-19T00:03:01;100036.61;;;11.82;91.94
3748;BME280;1889;50.058;8.688;2023-11-19T00:05:31;100036.34;;;11.73;91.60
3748;BME280;1889;50.058;8.688;2023-11-19T00:08:00;100046.71;;;11.82;91.96
3748;BME280;1889;50.058;8.688;2023-11-19T00:10:30;100025.41;;;11.71;91.78
3748;BME280;1889;50.058;8.688;2023-11-19T00:12:59;100030.11;;;11.77;91.60
3748;BME280;1889;50.058;8.688;2023-11-19T00:15:28;100024.79;;;11.42;93.70
3748;BME280;1889;50.058;8.688;2023-11-19T00:17:58;100023.05;;;11.79;92.40
3748;BME280;1889;50.058;8.688;2023-11-19T00:20:27;100026.95;;;11.62;92.87
3748;BME280;1889;50.058;8.688;2023-11-19T00:22:57;100026.17;;;11.58;93.88
3748;BME280;1889;50.058;8.688;2023-11-19T00:25:26;100036.59;;;11.63;93.73
3748;BME280;1889;50.058;8.688;2023-11-19T00:27:55;100039.55;;;11.88;91.91
3748;BME280;1889;50.058;8.688;2023-11-19T00:30:25;100046.36;;;11.59;93.47
3748;BME280;1889;50.058;8.688;2023-11-19T00:32:54;100046.74;;;11.42;94.03
3748;BME280;1889;50.058;8.688;2023-11-19T00:35:23;100047.72;;;11.37;95.17
3748;BME280;1889;50.058;8.688;2023-11-19T00:37:53;100035.27;;;11.63;94.44
3748;BME280;1889;50.058;8.688;2023-11-19T00:40:22;100039.48;;;11.91;92.63
3748;BME280;1889;50.058;8.688;2023-11-19T00:42:51;100031.53;;;11.74;92.86
3748;BME280;1889;50.058;8.688;2023-11-19T00:45:21;100018.90;;;11.87;92.74
3748;BME280;1889;50.058;8.688;2023-11-19T00:47:51;100012.88;;;12.00;92.09
3748;BME280;1889;50.058;8.688;2023-11-19T00:50:20;100008.31;;;11.69;92.29
3748;BME280;1889;50.058;8.688;2023-11-19T00:52:50;100007.41;;;11.70;93.02
3748;BME280;1889;50.058;8.688;2023-11-19T00:55:20;100017.69;;;11.44;95.59
3748;BME280;1889;50.058;8.688;2023-11-19T00:57:49;100027.94;;;11.58;94.86
3748;BME280;1889;50.058;8.688;2023-11-19T01:00:18;100031.16;;;11.90;93.71
3748;BME280;1889;50.058;8.688;2023-11-19T01:02:49;100025.81;;;11.54;94.84
3748;BME280;1889;50.058;8.688;2023-11-19T01:05:19;100017.39;;;11.58;95.38
3748;BME280;1889;50.058;8.688;2023-11-19T01:07:51;99995.20;;;11.85;93.93
3748;BME280;1889;50.058;8.688;2023-11-19T01:10:22;99990.47;;;12.00;93.02
3748;BME280;1889;50.058;8.688;2023-11-19T01:12:51;99997.42;;;12.18;91.89
3748;BME280;1889;50.058;8.688;2023-11-19T01:15:20;99998.47;;;12.29;91.19
3748;BME280;1889;50.058;8.688;2023-11-19T01:17:50;99988.19;;;11.84;92.45
3748;BME280;1889;50.058;8.688;2023-11-19T01:20:20;99975.22;;;11.93;93.49
3748;BME280;1889;50.058;8.688;2023-11-19T01:22:50;99971.16;;;11.98;93.70
3748;BME280;1889;50.058;8.688;2023-11-19T01:25:20;99971.38;;;12.06;92.86
3748;BME280;1889;50.058;8.688;2023-11-19T01:27:49;99958.16;;;12.24;92.31
3748;BME280;1889;50.058;8.688;2023-11-19T01:30:18;99947.67;;;12.21;92.19
3748;BME280;1889;50.058;8.688;2023-11-19T01:32:50;99939.10;;;11.97;93.00
3748;BME280;1889;50.058;8.688;2023-11-19T01:35:19;99937.86;;;12.10;92.94
3748;BME280;1889;50.058;8.688;2023-11-19T01:37:49;99958.84;;;11.98;93.15
3748;BME280;1889;50.058;8.688;2023-11-19T01:40:21;99951.91;;;12.10;93.40
3748;BME280;1889;50.058;8.688;2023-11-19T01:42:51;99950.34;;;12.03;93.06
3748;BME280;1889;50.058;8.688;2023-11-19T01:45:25;99965.04;;;11.79;94.00
3748;BME280;1889;50.058;8.688;2023-11-19T01:47:52;99960.59;;;11.62;97.20
3748;BME280;1889;50.058;8.688;2023-11-19T01:50:23;99941.34;;;11.78;95.88
3748;BME280;1889;50.058;8.688;2023-11-19T01:52:54;99953.66;;;11.77;96.03
3748;BME280;1889;50.058;8.688;2023-11-19T01:55:27;99960.14;;;11.45;98.67
3748;BME280;1889;50.058;8.688;2023-11-19T01:57:59;99963.67;;;11.44;99.44
3748;BME280;1889;50.058;8.688;2023-11-19T02:00:30;99957.28;;;11.54;98.91
3748;BME280;1889;50.058;8.688;2023-11-19T02:03:01;99944.48;;;11.39;100.00
3748;BME280;1889;50.058;8.688;2023-11-19T02:05:32;99935.46;;;11.67;99.14
3748;BME280;1889;50.058;8.688;2023-11-19T02:08:02;99925.63;;;11.56;99.28
3748;BME280;1889;50.058;8.688;2023-11-19T02:10:31;99909.38;;;11.72;99.08
3748;BME280;1889;50.058;8.688;2023-11-19T02:13:01;99892.77;;;11.87;97.76
3748;BME280;1889;50.058;8.688;2023-11-19T02:15:33;99897.98;;;11.90;97.68
3748;BME280;1889;50.058;8.688;2023-11-19T02:20:50;99902.29;;;11.58;99.93
3748;BME280;1889;50.058;8.688;2023-11-19T02:23:21;99894.91;;;11.37;100.00
3748;BME280;1889;50.058;8.688;2023-11-19T02:26:12;99885.84;;;11.48;100.00
3748;BME280;1889;50.058;8.688;2023-11-19T02:28:42;99877.54;;;11.81;100.00
3748;BME280;1889;50.058;8.688;2023-11-19T02:31:11;99881.69;;;11.56;100.00
3748;BME280;1889;50.058;8.688;2023-11-19T02:33:41;99877.61;;;11.78;100.00
3748;BME280;1889;50.058;8.688;2023-11-19T02:36:10;99885.51;;;11.61;100.00
3748;BME280;1889;50.058;8.688;2023-11-19T02:38:39;99888.81;;;11.87;100.00
3748;BME280;1889;50.058;8.688;2023-11-19T02:41:09;99888.36;;;11.69;100.00
3748;BME280;1889;50.058;8.688;2023-11-19T02:43:38;99887.05;;;11.69;100.00
3748;BME280;1889;50.058;8.688;2023-11-19T02:46:08;99882.64;;;11.88;100.00
3748;BME280;1889;50.058;8.688;2023-11-19T02:48:37;99889.16;;;11.74;100.00
3748;BME280;1889;50.058;8.688;2023-11-19T02:51:07;99873.76;;;11.75;100.00
3748;BME280;1889;50.058;8.688;2023-11-19T02:53:39;99875.59;;;11.88;100.00
3748;BME280;1889;50.058;8.688;2023-11-19T02:56:08;99872.09;;;11.88;100.00
3748;BME280;1889;50.058;8.688;2023-11-19T02:58:45;99864.82;;;11.45;100.00
3748;BME280;1889;50.058;8.688;2023-11-19T03:01:23;99863.17;;;11.59;100.00
3748;BME280;1889;50.058;8.688;2023-11-19T03:04:01;99869.53;;;11.84;100.00
3748;BME280;1889;50.058;8.688;2023-11-19T03:06:26;99874.97;;;11.61;100.00
3748;BME280;1889;50.058;8.688;2023-11-19T03:08:57;99878.97;;;11.77;100.00
3748;BME280;1889;50.058;8.688;2023-11-19T03:11:26;99877.30;;;11.91;100.00
3748;BME280;1889;50.058;8.688;2023-11-19T03:13:55;99875.83;;;12.11;100.00
3748;BME280;1889;50.058;8.688;2023-11-19T03:16:24;99869.27;;;12.10;100.00
3748;BME280;1889;50.058;8.688;2023-11-19T03:18:54;99865.04;;;12.04;100.00
3748;BME280;1889;50.058;8.688;2023-11-19T03:21:30;99854.80;;;12.08;100.00
3748;BME280;1889;50.058;8.688;2023-11-19T03:24:00;99843.00;;;12.07;100.00
3748;BME280;1889;50.058;8.688;2023-11-19T03:26:29;99850.05;;;12.06;100.00
3748;BME280;1889;50.058;8.688;2023-11-19T03:28:58;99843.88;;;12.37;100.00
3748;BME280;1889;50.058;8.688;2023-11-19T03:31:28;99840.20;;;11.97;100.00
3748;BME280;1889;50.058;8.688;2023-11-19T03:33:57;99841.95;;;12.12;100.00
3748;BME280;1889;50.058;8.688;2023-11-19T03:36:34;99845.14;;;11.76;100.00
3748;BME280;1889;50.058;8.688;2023-11-19T03:39:03;99853.80;;;11.98;100.00
3748;BME280;1889;50.058;8.688;2023-11-19T03:41:33;99844.81;;;12.19;100.00
3748;BME280;1889;50.058;8.688;2023-11-19T03:44:02;99853.82;;;12.12;100.00
3748;BME280;1889;50.058;8.688;2023-11-19T03:46:32;99856.66;;;12.21;100.00
3748;BME280;1889;50.058;8.688;2023-11-19T03:49:01;99851.75;;;12.38;100.00
3748;BME280;1889;50.058;8.688;2023-11-19T03:51:32;99861.11;;;12.34;100.00
3748;BME280;1889;50.058;8.688;2023-11-19T03:54:03;99844.54;;;12.58;99.80
3748;BME280;1889;50.058;8.688;2023-11-19T03:56:32;99846.81;;;12.26;99.95
3748;BME280;1889;50.058;8.688;2023-11-19T03:59:01;99850.28;;;12.13;100.00
3748;BME280;1889;50.058;8.688;2023-11-19T04:01:31;99860.98;;;12.23;100.00
3748;BME280;1889;50.058;8.688;2023-11-19T04:04:00;99849.47;;;11.95;100.00
3748;BME280;1889;50.058;8.688;2023-11-19T04:06:29;99842.33;;;12.15;100.00
3748;BME280;1889;50.058;8.688;2023-11-19T04:08:58;99837.99;;;12.12;100.00
3748;BME280;1889;50.058;8.688;2023-11-19T04:11:28;99850.09;;;12.19;100.00
3748;BME280;1889;50.058;8.688;2023-11-19T04:13:57;99845.46;;;12.28;100.00
3748;BME280;1889;50.058;8.688;2023-11-19T04:16:27;99839.31;;;12.12;100.00
3748;BME280;1889;50.058;8.688;2023-11-19T04:18:57;99836.20;;;11.98;100.00
3748;BME280;1889;50.058;8.688;2023-11-19T04:21:26;99830.61;;;12.09;100.00
3748;BME280;1889;50.058;8.688;2023-11-19T04:23:55;99838.47;;;11.96;100.00
3748;BME280;1889;50.058;8.688;2023-11-19T04:26:25;99839.71;;;11.99;100.00
3748;BME280;1889;50.058;8.688;2023-11-19T04:28:54;99835.59;;;11.89;100.00
3748;BME280;1889;50.058;8.688;2023-11-19T04:31:24;99831.64;;;11.89;100.00
3748;BME280;1889;50.058;8.688;2023-11-19T04:33:54;99828.44;;;11.92;100.00
3748;BME280;1889;50.058;8.688;2023-11-19T04:36:23;99831.50;;;11.93;100.00
3748;BME280;1889;50.058;8.688;2023-11-19T04:38:53;99827.39;;;11.99;100.00
3748;BME280;1889;50.058;8.688;2023-11-19T04:41:22;99827.73;;;12.02;100.00
3748;BME280;1889;50.058;8.688;2023-11-19T04:43:51;99823.26;;;12.20;100.00
3748;BME280;1889;50.058;8.688;2023-11-19T04:46:21;99815.08;;;12.14;100.00
3748;BME280;1889;50.058;8.688;2023-11-19T04:48:51;99809.91;;;12.10;100.00
3748;BME280;1889;50.058;8.688;2023-11-19T04:51:21;99802.19;;;12.04;100.00
3748;BME280;1889;50.058;8.688;2023-11-19T04:53:50;99808.78;;;12.04;100.00
3748;BME280;1889;50.058;8.688;2023-11-19T04:56:19;99818.28;;;12.09;100.00
3748;BME280;1889;50.058;8.688;2023-11-19T04:58:50;99811.80;;;12.36;100.00
3748;BME280;1889;50.058;8.688;2023-11-19T05:01:20;99811.42;;;12.33;100.00
3748;BME280;1889;50.058;8.688;2023-11-19T05:03:49;99821.03;;;12.21;100.00
3748;BME280;1889;50.058;8.688;2023-11-19T05:06:19;99816.80;;;12.45;100.00
3748;BME280;1889;50.058;8.688;2023-11-19T05:08:48;99813.83;;;12.41;100.00
3748;BME280;1889;50.058;8.688;2023-11-19T05:11:17;99814.12;;;12.46;100.00
3748;BME280;1889;50.058;8.688;2023-11-19T05:13:48;99822.50;;;12.31;100.00
3748;BME280;1889;50.058;8.688;2023-11-19T05:16:18;99833.80;;;12.49;100.00
3748;BME280;1889;50.058;8.688;2023-11-19T05:18:48;99832.59;;;12.46;100.00
3748;BME280;1889;50.058;8.688;2023-11-19T05:21:18;99825.55;;;12.47;100.00
3748;BME280;1889;50.058;8.688;2023-11-19T05:23:47;99825.94;;;12.33;100.00
3748;BME280;1889;50.058;8.688;2023-11-19T05:26:20;99822.84;;;12.34;100.00
3748;BME280;1889;50.058;8.688;2023-11-19T05:28:50;99825.84;;;12.51;100.00
3748;BME280;1889;50.058;8.688;2023-11-19T05:31:20;99817.07;;;12.36;100.00
3748;BME280;1889;50.058;8.688;2023-11-19T05:33:49;99815.93;;;12.44;100.00
3748;BME280;1889;50.058;8.688;2023-11-19T05:36:18;99823.11;;;12.24;100.00
3748;BME280;1889;50.058;8.688;2023-11-19T05:38:48;99833.58;;;12.13;100.00
3748;BME280;1889;50.058;8.688;2023-11-19T05:41:17;99832.34;;;12.24;100.00
3748;BME280;1889;50.058;8.688;2023-11-19T05:43:46;99819.34;;;12.33;100.00
3748;BME280;1889;50.058;8.688;2023-11-19T05:46:16;99806.56;;;12.05;100.00
3748;BME280;1889;50.058;8.688;2023-11-19T05:48:45;99801.55;;;12.25;100.00
3748;BME280;1889;50.058;8.688;2023-11-19T05:51:15;99794.38;;;11.84;100.00
3748;BME280;1889;50.058;8.688;2023-11-19T05:53:44;99797.93;;;12.00;100.00
3748;BME280;1889;50.058;8.688;2023-11-19T05:56:18;99791.38;;;12.13;100.00
3748;BME280;1889;50.058;8.688;2023-11-19T05:58:49;99798.72;;;12.16;100.00
3748;BME280;1889;50.058;8.688;2023-11-19T06:01:19;99808.11;;;12.27;100.00
3748;BME280;1889;50.058;8.688;2023-11-19T06:03:48;99802.56;;;12.36;100.00
3748;BME280;1889;50.058;8.688;2023-11-19T06:06:18;99810.44;;;12.37;100.00
3748;BME280;1889;50.058;8.688;2023-11-19T06:08:47;99811.20;;;12.55;100.00
3748;BME280;1889;50.058;8.688;2023-11-19T06:11:18;99806.84;;;12.40;100.00
3748;BME280;1889;50.058;8.688;2023-11-19T06:13:48;99816.09;;;12.40;100.00
3748;BME280;1889;50.058;8.688;2023-11-19T06:16:20;99819.02;;;12.44;100.00
3748;BME280;1889;50.058;8.688;2023-11-19T06:18:49;99817.92;;;12.51;100.00
3748;BME280;1889;50.058;8.688;2023-11-19T06:21:19;99820.52;;;12.52;100.00
3748;BME280;1889;50.058;8.688;2023-11-19T06:23:48;99816.66;;;12.35;100.00
3748;BME280;1889;50.058;8.688;2023-11-19T06:26:19;99837.66;;;12.39;100.00
3748;BME280;1889;50.058;8.688;2023-11-19T06:28:50;99832.86;;;12.52;100.00
3748;BME280;1889;50.058;8.688;2023-11-19T06:31:20;99828.62;;;12.61;100.00
3748;BME280;1889;50.058;8.688;2023-11-19T06:33:49;99834.08;;;12.70;100.00
3748;BME280;1889;50.058;8.688;2023-11-19T06:36:19;99825.37;;;12.66;100.00
3748;BME280;1889;50.058;8.688;2023-11-19T06:38:48;99826.58;;;12.84;100.00
3748;BME280;1889;50.058;8.688;2023-11-19T06:41:17;99824.30;;;12.86;100.00
3748;BME280;1889;50.058;8.688;2023-11-19T06:43:46;99833.62;;;12.70;100.00
3748;BME280;1889;50.058;8.688;2023-11-19T06:46:16;99837.01;;;12.74;100.00
3748;BME280;1889;50.058;8.688;2023-11-19T06:48:46;99842.46;;;12.82;100.00
3748;BME280;1889;50.058;8.688;2023-11-19T06:51:15;99847.20;;;12.86;100.00
3748;BME280;1889;50.058;8.688;2023-11-19T06:53:45;99834.88;;;12.99;100.00
3748;BME280;1889;50.058;8.688;2023-11-19T06:56:21;99843.84;;;12.66;100.00
3748;BME280;1889;50.058;8.688;2023-11-19T06:58:51;99848.53;;;12.86;100.00
3748;BME280;1889;50.058;8.688;2023-11-19T07:01:21;99838.50;;;12.97;100.00
3748;BME280;1889;50.058;8.688;2023-11-19T07:03:50;99845.18;;;12.81;100.00
3748;BME280;1889;50.058;8.688;2023-11-19T07:06:20;99841.71;;;12.79;100.00
3748;BME280;1889;50.058;8.688;2023-11-19T07:08:51;99850.22;;;12.88;100.00
3748;BME280;1889;50.058;8.688;2023-11-19T07:11:20;99839.95;;;12.92;100.00
3748;BME280;1889;50.058;8.688;2023-11-19T07:13:49;99841.35;;;12.89;100.00
3748;BME280;1889;50.058;8.688;2023-11-19T07:16:18;99843.45;;;13.06;100.00
3748;BME280;1889;50.058;8.688;2023-11-19T07:18:49;99840.92;;;13.18;100.00
3748;BME280;1889;50.058;8.688;2023-11-19T07:21:19;99839.23;;;13.15;100.00
3748;BME280;1889;50.058;8.688;2023-11-19T07:23:49;99834.81;;;13.16;100.00
3748;BME280;1889;50.058;8.688;2023-11-19T07:26:20;99837.85;;;13.30;100.00
3748;BME280;1889;50.058;8.688;2023-11-19T07:28:50;99834.66;;;13.33;100.00
3748;BME280;1889;50.058;8.688;2023-11-19T07:31:19;99841.48;;;13.27;100.00
3748;BME280;1889;50.058;8.688;2023-11-19T07:33:49;99838.81;;;13.14;100.00
3748;BME280;1889;50.058;8.688;2023-11-19T07:36:18;99845.35;;;13.03;100.00
3748;BME280;1889;50.058;8.688;2023-11-19T07:38:48;99856.13;;;13.10;100.00
3748;BME280;1889;50.058;8.688;2023-11-19T07:41:18;99855.42;;;12.90;100.00
3748;BME280;1889;50.058;8.688;2023-11-19T07:43:48;99852.05;;;12.99;100.00
3748;BME280;1889;50.058;8.688;2023-11-19T07:46:18;99841.76;;;13.05;100.00
3748;BME280;1889;50.058;8.688;2023-11-19T07:48:48;99848.16;;;13.11;100.00
3748;BME280;1889;50.058;8.688;2023-11-19T07:51:17;99856.32;;;13.18;100.00
3748;BME280;1889;50.058;8.688;2023-11-19T07:53:47;99848.80;;;13.32;100.00
3748;BME280;1889;50.058;8.688;2023-11-19T07:56:17;99845.58;;;13.23;100.00
3748;BME280;1889;50.058;8.688;2023-11-19T07:58:46;99849.52;;;13.38;100.00
3748;BME280;1889;50.058;8.688;2023-11-19T08:01:16;99853.97;;;13.49;100.00
3748;BME280;1889;50.058;8.688;2023-11-19T08:03:46;99855.77;;;13.73;100.00
3748;BME280;1889;50.058;8.688;2023-11-19T08:06:15;99865.58;;;13.83;100.00
3748;BME280;1889;50.058;8.688;2023-11-19T08:08:44;99867.29;;;13.59;100.00
3748;BME280;1889;50.058;8.688;2023-11-19T08:11:16;99871.95;;;13.77;100.00
3748;BME280;1889;50.058;8.688;2023-11-19T08:13:45;99871.47;;;13.53;100.00
3748;BME280;1889;50.058;8.688;2023-11-19T08:16:14;99864.33;;;13.68;100.00
3748;BME280;1889;50.058;8.688;2023-11-19T08:18:44;99868.44;;;13.77;100.00
3748;BME280;1889;50.058;8.688;2023-11-19T08:21:13;99872.14;;;13.84;100.00
3748;BME280;1889;50.058;8.688;2023-11-19T08:23:43;99880.58;;;13.82;100.00
3748;BME280;1889;50.058;8.688;2023-11-19T08:26:12;99878.44;;;14.05;100.00
3748;BME280;1889;50.058;8.688;2023-11-19T08:28:43;99870.58;;;14.15;100.00
3748;BME280;1889;50.058;8.688;2023-11-19T08:31:12;99872.15;;;13.96;100.00
3748;BME280;1889;50.058;8.688;2023-11-19T08:33:42;99868.85;;;14.02;100.00
3748;BME280;1889;50.058;8.688;2023-11-19T08:36:15;99867.72;;;13.85;100.00
3748;BME280;1889;50.058;8.688;2023-11-19T08:38:45;99863.11;;;13.90;100.00
3748;BME280;1889;50.058;8.688;2023-11-19T08:41:15;99868.19;;;14.32;100.00
3748;BME280;1889;50.058;8.688;2023-11-19T08:43:46;99863.63;;;14.24;100.00
3748;BME280;1889;50.058;8.688;2023-11-19T08:46:15;99877.09;;;14.18;100.00
3748;BME280;1889;50.058;8.688;2023-11-19T08:48:45;99878.02;;;14.17;100.00
3748;BME280;1889;50.058;8.688;2023-11-19T08:51:14;99891.95;;;14.34;100.00
3748;BME280;1889;50.058;8.688;2023-11-19T08:53:43;99897.73;;;14.20;100.00
3748;BME280;1889;50.058;8.688;2023-11-19T08:56:13;99889.79;;;14.45;100.00
3748;BME280;1889;50.058;8.688;2023-11-19T08:58:42;99884.84;;;14.71;100.00
3748;BME280;1889;50.058;8.688;2023-11-19T09:01:12;99890.37;;;14.53;100.00
3748;BME280;1889;50.058;8.688;2023-11-19T09:03:41;99890.53;;;14.60;100.00
3748;BME280;1889;50.058;8.688;2023-11-19T09:06:11;99886.94;;;14.51;100.00
3748;BME280;1889;50.058;8.688;2023-11-19T09:08:41;99895.32;;;14.62;100.00
3748;BME280;1889;50.058;8.688;2023-11-19T09:11:11;99893.14;;;14.73;100.00
3748;BME280;1889;50.058;8.688;2023-11-19T09:13:40;99894.44;;;14.85;100.00
3748;BME280;1889;50.058;8.688;2023-11-19T09:16:11;99887.34;;;14.85;100.00
3748;BME280;1889;50.058;8.688;2023-11-19T09:18:41;99893.81;;;14.90;100.00
3748;BME280;1889;50.058;8.688;2023-11-19T09:21:13;99887.03;;;14.83;100.00
3748;BME280;1889;50.058;8.688;2023-11-19T09:23:42;99884.54;;;14.90;100.00
3748;BME280;1889;50.058;8.688;2023-11-19T09:26:13;99893.41;;;14.77;100.00
3748;BME280;1889;50.058;8.688;2023-11-19T09:28:43;99886.57;;;14.83;100.00
3748;BME280;1889;50.058;8.688;2023-11-19T09:31:16;99879.40;;;14.85;100.00
3748;BME280;1889;50.058;8.688;2023-11-19T09:33:45;99877.11;;;14.76;100.00
3748;BME280;1889;50.058;8.688;2023-11-19T09:36:16;99877.45;;;14.79;100.00
3748;BME280;1889;50.058;8.688;2023-11-19T09:38:47;99879.45;;;14.84;100.00
3748;BME280;1889;50.058;8.688;2023-11-19T09:41:17;99879.24;;;14.78;100.00
3748;BME280;1889;50.058;8.688;2023-11-19T09:43:47;99878.27;;;14.69;100.00
3748;BME280;1889;50.058;8.688;2023-11-19T09:46:17;99878.27;;;14.69;100.00
3748;BME280;1889;50.058;8.688;2023-11-19T09:48:47;99879.84;;;14.63;100.00
3748;BME280;1889;50.058;8.688;2023-11-19T09:51:18;99879.84;;;14.63;100.00
3748;BME280;1889;50.058;8.688;2023-11-19T09:53:47;99888.41;;;14.81;100.00
3748;BME280;1889;50.058;8.688;2023-11-19T09:56:17;99889.54;;;14.86;100.00
3748;BME280;1889;50.058;8.688;2023-11-19T09:58:47;99890.59;;;14.82;100.00
3748;BME280;1889;50.058;8.688;2023-11-19T10:01:16;99891.22;;;14.77;100.00
3748;BME280;1889;50.058;8.688;2023-11-19T10:03:47;99891.22;;;14.77;100.00
3748;BME280;1889;50.058;8.688;2023-11-19T10:06:17;99901.41;;;14.76;100.00
3748;BME280;1889;50.058;8.688;2023-11-19T10:08:47;99898.49;;;14.83;100.00
3748;BME280;1889;50.058;8.688;2023-11-19T10:11:17;99892.59;;;14.87;100.00
3748;BME280;1889;50.058;8.688;2023-11-19T10:13:47;99892.38;;;14.81;100.00
3748;BME280;1889;50.058;8.688;2023-11-19T10:16:18;99887.97;;;14.92;100.00
3748;BME280;1889;50.058;8.688;2023-11-19T10:18:49;99881.33;;;14.82;100.00
3748;BME280;1889;50.058;8.688;2023-11-19T10:21:22;99889.23;;;14.94;100.00
3748;BME280;1889;50.058;8.688;2023-11-19T10:23:53;99884.40;;;14.93;99.71
3748;BME280;1889;50.058;8.688;2023-11-19T10:26:23;99868.80;;;14.97;98.05
3748;BME280;1889;50.058;8.688;2023-11-19T10:28:53;99869.41;;;15.04;97.36
3748;BME280;1889;50.058;8.688;2023-11-19T10:31:22;99855.73;;;15.14;98.24
3748;BME280;1889;50.058;8.688;2023-11-19T10:33:53;99863.22;;;15.15;96.79
3748;BME280;1889;50.058;8.688;2023-11-19T10:36:23;99863.22;;;15.15;96.79
3748;BME280;1889;50.058;8.688;2023-11-19T10:38:55;99866.80;;;15.14;96.03
3748;BME280;1889;50.058;8.688;2023-11-19T10:41:31;99872.98;;;15.03;94.24
3748;BME280;1889;50.058;8.688;2023-11-19T10:44:01;99872.98;;;15.03;94.24
3748;BME280;1889;50.058;8.688;2023-11-19T10:46:39;99875.62;;;15.03;93.64
3748;BME280;1889;50.058;8.688;2023-11-19T10:49:09;99854.88;;;15.02;90.46
3748;BME280;1889;50.058;8.688;2023-11-19T10:51:45;99854.88;;;15.02;90.46
3748;BME280;1889;50.058;8.688;2023-11-19T10:54:16;99844.58;;;15.06;87.68
3748;BME280;1889;50.058;8.688;2023-11-19T10:56:54;99835.15;;;14.99;84.00
3748;BME280;1889;50.058;8.688;2023-11-19T10:59:21;99835.96;;;15.11;84.82
3748;BME280;1889;50.058;8.688;2023-11-19T11:01:53;99829.48;;;15.18;81.40
3748;BME280;1889;50.058;8.688;2023-11-19T11:04:25;99829.48;;;15.18;81.40
3748;BME280;1889;50.058;8.688;2023-11-19T11:06:56;99835.64;;;15.19;77.68
3748;BME280;1889;50.058;8.688;2023-11-19T11:09:27;99833.77;;;15.11;78.43
3748;BME280;1889;50.058;8.688;2023-11-19T11:11:57;99822.39;;;15.19;78.20
3748;BME280;1889;50.058;8.688;2023-11-19T11:14:28;99828.15;;;15.18;76.00
3748;BME280;1889;50.058;8.688;2023-11-19T11:16:58;99820.14;;;15.20;75.38
3748;BME280;1889;50.058;8.688;2023-11-19T11:19:27;99814.87;;;15.08;73.89
3748;BME280;1889;50.058;8.688;2023-11-19T11:21:57;99812.16;;;15.00;75.00
3748;BME280;1889;50.058;8.688;2023-11-19T11:24:35;99813.08;;;15.09;73.82
3748;BME280;1889;50.058;8.688;2023-11-19T11:27:34;99820.25;;;15.17;74.23
3748;BME280;1889;50.058;8.688;2023-11-19T11:33:32;99821.36;;;15.43;73.90
3748;BME280;1889;50.058;8.688;2023-11-19T11:36:10;99817.31;;;15.56;73.65
3748;BME280;1889;50.058;8.688;2023-11-19T11:38:40;99826.91;;;15.59;72.79
3748;BME280;1889;50.058;8.688;2023-11-19T11:41:23;99826.91;;;15.59;72.79
3748;BME280;1889;50.058;8.688;2023-11-19T11:43:54;99820.42;;;15.56;72.41
3748;BME280;1889;50.058;8.688;2023-11-19T11:49:07;99816.77;;;15.79;72.40
3748;BME280;1889;50.058;8.688;2023-11-19T11:57:09;99807.72;;;15.83;71.06
3748;BME280;1889;50.058;8.688;2023-11-19T11:59:47;99807.72;;;15.83;71.06
3748;BME280;1889;50.058;8.688;2023-11-19T12:02:21;99811.70;;;15.93;68.51
3748;BME280;1889;50.058;8.688;2023-11-19T12:04:52;99798.50;;;15.81;68.30
3748;BME280;1889;50.058;8.688;2023-11-19T12:07:23;99798.50;;;15.81;68.30
3748;BME280;1889;50.058;8.688;2023-11-19T12:10:07;99798.19;;;15.89;68.92
3748;BME280;1889;50.058;8.688;2023-11-19T12:12:40;99807.84;;;15.90;68.79
3748;BME280;1889;50.058;8.688;2023-11-19T12:15:10;99807.08;;;15.78;68.36
3748;BME280;1889;50.058;8.688;2023-11-19T12:17:49;99796.61;;;15.64;68.01
3748;BME280;1889;50.058;8.688;2023-11-19T12:20:21;99792.02;;;15.58;68.34
3748;BME280;1889;50.058;8.688;2023-11-19T12:22:51;99797.20;;;15.71;68.11
3748;BME280;1889;50.058;8.688;2023-11-19T12:25:20;99793.99;;;15.83;67.92
3748;BME280;1889;50.058;8.688;2023-11-19T12:27:51;99788.28;;;15.82;67.88
3748;BME280;1889;50.058;8.688;2023-11-19T12:30:24;99800.25;;;15.62;67.86
3748;BME280;1889;50.058;8.688;2023-11-19T12:32:54;99784.98;;;15.57;67.57
3748;BME280;1889;50.058;8.688;2023-11-19T12:35:24;99768.08;;;15.59;67.02
3748;BME280;1889;50.058;8.688;2023-11-19T12:37:53;99779.89;;;15.62;67.09
3748;BME280;1889;50.058;8.688;2023-11-19T12:40:25;99772.06;;;15.59;67.19
3748;BME280;1889;50.058;8.688;2023-11-19T12:42:56;99778.07;;;15.83;66.85
3748;BME280;1889;50.058;8.688;2023-11-19T12:45:36;99778.07;;;15.83;66.85
3748;BME280;1889;50.058;8.688;2023-11-19T12:48:08;99781.06;;;15.65;66.16
3748;BME280;1889;50.058;8.688;2023-11-19T12:50:57;99776.80;;;15.82;66.99
3748;BME280;1889;50.058;8.688;2023-11-19T12:53:27;99776.34;;;15.82;66.69
3748;BME280;1889;50.058;8.688;2023-11-19T12:55:59;99774.48;;;15.84;66.94
3748;BME280;1889;50.058;8.688;2023-11-19T12:58:36;99777.95;;;15.66;67.60
3748;BME280;1889;50.058;8.688;2023-11-19T13:01:07;99774.16;;;15.82;67.15
3748;BME280;1889;50.058;8.688;2023-11-19T13:03:38;99774.24;;;15.80;67.31
3748;BME280;1889;50.058;8.688;2023-11-19T13:06:11;99768.66;;;15.86;67.37
3748;BME280;1889;50.058;8.688;2023-11-19T13:08:46;99765.70;;;16.02;67.70
3748;BME280;1889;50.058;8.688;2023-11-19T13:11:34;99761.38;;;16.00;65.03
3748;BME280;1889;50.058;8.688;2023-11-19T13:14:04;99769.20;;;16.13;65.83
3748;BME280;1889;50.058;8.688;2023-11-19T13:16:37;99765.43;;;16.27;64.96
3748;BME280;1889;50.058;8.688;2023-11-19T13:19:06;99764.97;;;16.28;64.76
3748;BME280;1889;50.058;8.688;2023-11-19T13:21:36;99764.97;;;16.28;64.76
3748;BME280;1889;50.058;8.688;2023-11-19T13:24:07;99766.55;;;16.22;64.25
3748;BME280;1889;50.058;8.688;2023-11-19T13:26:37;99771.69;;;16.16;62.47
3748;BME280;1889;50.058;8.688;2023-11-19T13:29:07;99763.38;;;16.05;60.97
3748;BME280;1889;50.058;8.688;2023-11-19T13:31:37;99761.61;;;15.95;60.39
3748;BME280;1889;50.058;8.688;2023-11-19T13:34:06;99765.34;;;16.10;59.61
3748;BME280;1889;50.058;8.688;2023-11-19T13:36:36;99763.80;;;16.15;58.55
3748;BME280;1889;50.058;8.688;2023-11-19T13:39:05;99769.44;;;16.17;58.61
3748;BME280;1889;50.058;8.688;2023-11-19T13:41:35;99764.86;;;16.21;58.12
3748;BME280;1889;50.058;8.688;2023-11-19T13:44:05;99757.66;;;16.23;57.18
3748;BME280;1889;50.058;8.688;2023-11-19T13:46:34;99752.95;;;16.00;56.66